Terminal Aerodrome Forecast
Issued by NWS

Home | Current Version | Previous Version | Text Only | Print | Product List | Glossary On
Versions: 1 2 3 4 5 6 7 8 9 10 11 12 13 14 15 16 17 18 19 20 21 22 23 24 25 26 27 28 29 30
000
FTUS46 KSGX 211400 AAA
TAFSAN
TAF AMD
KSAN 211410Z 2114/2218 VRB04KT 4SM BR FEW005 OVC007
     FM211700 VRB05KT 6SM BR BKN009
     FM211800 20005KT P6SM SCT010
     FM211900 23009KT P6SM SKC
     FM220200 21005KT P6SM BKN010
     FM220800 VRB04KT P6SM OVC015
     FM221700 21008KT P6SM BKN022=

USA.gov is the U.S. government's official web portal to all federal, state and local government web resources and services.